sensor_id;sensor_type;location;lat;lon;timestamp;pressure;altitude;pressure_sealevel;temperature;humidity
17373;BME280;8803;48.116;11.590;2023-08-17T00:02:27;95664.61;;;24.53;74.53
17373;BME280;8803;48.116;11.590;2023-08-17T00:06:47;95662.03;;;24.49;74.30
17373;BME280;8803;48.116;11.590;2023-08-17T00:11:04;95680.70;;;24.46;74.82
17373;BME280;8803;48.116;11.590;2023-08-17T00:15:22;95665.17;;;24.37;75.05
17373;BME280;8803;48.116;11.590;2023-08-17T00:19:38;95663.58;;;24.39;74.95
17373;BME280;8803;48.116;11.590;2023-08-17T00:23:55;95663.20;;;24.35;75.52
17373;BME280;8803;48.116;11.590;2023-08-17T00:28:12;95659.27;;;24.31;75.33
17373;BME280;8803;48.116;11.590;2023-08-17T00:32:30;95660.21;;;24.27;75.79
17373;BME280;8803;48.116;11.590;2023-08-17T00:36:47;95660.35;;;24.23;76.41
17373;BME280;8803;48.116;11.590;2023-08-17T00:41:05;95667.06;;;24.21;76.42
17373;BME280;8803;48.116;11.590;2023-08-17T00:45:24;95671.28;;;24.17;77.04
17373;BME280;8803;48.116;11.590;2023-08-17T00:49:42;95665.97;;;24.13;76.95
17373;BME280;8803;48.116;11.590;2023-08-17T00:54:00;95665.59;;;24.09;77.02
17373;BME280;8803;48.116;11.590;2023-08-17T00:58:19;95654.94;;;24.08;77.00
17373;BME280;8803;48.116;11.590;2023-08-17T01:02:38;95647.41;;;24.03;77.14
17373;BME280;8803;48.116;11.590;2023-08-17T01:06:55;95649.42;;;23.99;77.62
17373;BME280;8803;48.116;11.590;2023-08-17T01:11:17;95661.05;;;23.97;78.20
17373;BME280;8803;48.116;11.590;2023-08-17T01:15:37;95662.54;;;23.93;78.40
17373;BME280;8803;48.116;11.590;2023-08-17T01:19:59;95645.52;;;23.88;78.39
17373;BME280;8803;48.116;11.590;2023-08-17T01:24:17;95657.05;;;23.84;78.58
17373;BME280;8803;48.116;11.590;2023-08-17T01:28:35;95665.05;;;23.79;78.58
17373;BME280;8803;48.116;11.590;2023-08-17T01:35:16;95671.13;;;23.74;79.06
17373;BME280;8803;48.116;11.590;2023-08-17T01:39:35;95675.86;;;23.70;79.53
17373;BME280;8803;48.116;11.590;2023-08-17T01:43:54;95665.69;;;23.52;80.55
17373;BME280;8803;48.116;11.590;2023-08-17T01:48:12;95665.67;;;23.36;81.39
17373;BME280;8803;48.116;11.590;2023-08-17T01:52:29;95653.69;;;23.22;82.76
17373;BME280;8803;48.116;11.590;2023-08-17T01:56:47;95659.56;;;23.12;83.37
17373;BME280;8803;48.116;11.590;2023-08-17T02:01:04;95653.95;;;23.07;83.35
17373;BME280;8803;48.116;11.590;2023-08-17T02:05:20;95642.38;;;23.03;83.34
17373;BME280;8803;48.116;11.590;2023-08-17T02:09:37;95647.38;;;22.99;84.07
17373;BME280;8803;48.116;11.590;2023-08-17T02:13:53;95640.70;;;22.95;84.35
17373;BME280;8803;48.116;11.590;2023-08-17T02:18:11;95639.05;;;22.94;83.88
17373;BME280;8803;48.116;11.590;2023-08-17T02:22:28;95637.69;;;22.94;84.00
17373;BME280;8803;48.116;11.590;2023-08-17T02:26:45;95633.08;;;22.95;84.05
17373;BME280;8803;48.116;11.590;2023-08-17T02:31:01;95629.65;;;22.97;83.89
17373;BME280;8803;48.116;11.590;2023-08-17T02:35:18;95631.09;;;22.93;83.74
17373;BME280;8803;48.116;11.590;2023-08-17T02:39:35;95624.66;;;22.87;84.10
17373;BME280;8803;48.116;11.590;2023-08-17T02:43:53;95627.89;;;22.80;83.54
17373;BME280;8803;48.116;11.590;2023-08-17T02:48:10;95629.88;;;22.82;83.52
17373;BME280;8803;48.116;11.590;2023-08-17T02:52:27;95631.04;;;22.84;82.77
17373;BME280;8803;48.116;11.590;2023-08-17T02:54:31;95629.06;;;22.82;82.60
17373;BME280;8803;48.116;11.590;2023-08-17T02:58:48;95635.61;;;22.90;83.17
17373;BME280;8803;48.116;11.590;2023-08-17T03:03:07;95631.77;;;22.88;82.95
17373;BME280;8803;48.116;11.590;2023-08-17T03:07:24;95631.02;;;22.90;82.54
17373;BME280;8803;48.116;11.590;2023-08-17T03:11:41;95624.03;;;22.85;83.54
17373;BME280;8803;48.116;11.590;2023-08-17T03:15:58;95632.59;;;22.82;83.24
17373;BME280;8803;48.116;11.590;2023-08-17T03:20:17;95628.00;;;22.83;83.73
17373;BME280;8803;48.116;11.590;2023-08-17T03:24:34;95635.95;;;22.84;83.17
17373;BME280;8803;48.116;11.590;2023-08-17T03:28:51;95635.30;;;22.82;82.64
17373;BME280;8803;48.116;11.590;2023-08-17T03:33:10;95643.67;;;22.81;83.49
17373;BME280;8803;48.116;11.590;2023-08-17T03:37:27;95644.30;;;22.76;82.83
17373;BME280;8803;48.116;11.590;2023-08-17T03:41:48;95636.78;;;22.78;82.67
17373;BME280;8803;48.116;11.590;2023-08-17T03:46:05;95650.78;;;22.82;82.56
17373;BME280;8803;48.116;11.590;2023-08-17T03:50:25;95644.00;;;22.82;82.32
17373;BME280;8803;48.116;11.590;2023-08-17T03:54:42;95642.31;;;22.81;82.14
17373;BME280;8803;48.116;11.590;2023-08-17T03:58:59;95646.39;;;22.81;82.07
17373;BME280;8803;48.116;11.590;2023-08-17T04:03:27;95650.97;;;22.80;82.01
17373;BME280;8803;48.116;11.590;2023-08-17T04:07:44;95662.38;;;22.80;81.79
17373;BME280;8803;48.116;11.590;2023-08-17T04:09:50;95661.66;;;22.75;81.23
17373;BME280;8803;48.116;11.590;2023-08-17T04:14:07;95663.30;;;22.76;81.49
17373;BME280;8803;48.116;11.590;2023-08-17T04:18:25;95656.63;;;22.72;81.53
17373;BME280;8803;48.116;11.590;2023-08-17T04:22:42;95663.86;;;22.69;82.01
17373;BME280;8803;48.116;11.590;2023-08-17T04:26:59;95666.47;;;22.66;82.16
17373;BME280;8803;48.116;11.590;2023-08-17T04:31:19;95678.69;;;22.66;81.62
17373;BME280;8803;48.116;11.590;2023-08-17T04:35:37;95672.19;;;22.67;82.25
17373;BME280;8803;48.116;11.590;2023-08-17T04:39:54;95682.53;;;22.68;82.08
17373;BME280;8803;48.116;11.590;2023-08-17T04:44:12;95679.31;;;22.68;81.86
17373;BME280;8803;48.116;11.590;2023-08-17T04:48:30;95683.59;;;22.73;81.51
17373;BME280;8803;48.116;11.590;2023-08-17T04:52:47;95683.03;;;22.81;80.92
17373;BME280;8803;48.116;11.590;2023-08-17T04:57:05;95685.97;;;22.86;80.99
17373;BME280;8803;48.116;11.590;2023-08-17T05:01:21;95691.16;;;22.94;81.26
17373;BME280;8803;48.116;11.590;2023-08-17T05:05:39;95684.14;;;23.02;80.79
17373;BME280;8803;48.116;11.590;2023-08-17T05:09:56;95683.77;;;23.20;80.49
17373;BME280;8803;48.116;11.590;2023-08-17T05:14:13;95689.61;;;23.59;78.60
17373;BME280;8803;48.116;11.590;2023-08-17T05:18:35;95691.39;;;23.94;77.34
17373;BME280;8803;48.116;11.590;2023-08-17T05:22:52;95687.84;;;25.59;71.65
17373;BME280;8803;48.116;11.590;2023-08-17T05:27:09;95684.03;;;26.49;68.26
17373;BME280;8803;48.116;11.590;2023-08-17T05:31:25;95687.23;;;27.13;64.43
17373;BME280;8803;48.116;11.590;2023-08-17T05:35:43;95684.98;;;26.99;63.84
17373;BME280;8803;48.116;11.590;2023-08-17T05:40:00;95687.43;;;26.66;64.41
17373;BME280;8803;48.116;11.590;2023-08-17T05:44:18;95680.92;;;27.24;64.18
17373;BME280;8803;48.116;11.590;2023-08-17T05:48:36;95674.19;;;28.65;60.82
17373;BME280;8803;48.116;11.590;2023-08-17T05:52:56;95675.71;;;30.09;55.84
17373;BME280;8803;48.116;11.590;2023-08-17T05:57:14;95679.25;;;31.68;50.61
17373;BME280;8803;48.116;11.590;2023-08-17T06:01:31;95677.95;;;32.71;47.51
17373;BME280;8803;48.116;11.590;2023-08-17T06:05:49;95676.33;;;33.00;46.21
17373;BME280;8803;48.116;11.590;2023-08-17T06:10:10;95677.69;;;33.05;45.83
17373;BME280;8803;48.116;11.590;2023-08-17T06:14:28;95685.09;;;33.47;44.49
17373;BME280;8803;48.116;11.590;2023-08-17T06:18:45;95678.76;;;33.44;44.10
17373;BME280;8803;48.116;11.590;2023-08-17T06:23:03;95679.56;;;33.47;43.92
17373;BME280;8803;48.116;11.590;2023-08-17T06:27:22;95681.23;;;33.40;43.38
17373;BME280;8803;48.116;11.590;2023-08-17T06:31:39;95679.30;;;33.46;43.69
17373;BME280;8803;48.116;11.590;2023-08-17T06:35:59;95676.25;;;33.65;43.48
17373;BME280;8803;48.116;11.590;2023-08-17T06:40:18;95666.73;;;33.94;42.68
17373;BME280;8803;48.116;11.590;2023-08-17T06:44:38;95672.95;;;34.27;41.95
17373;BME280;8803;48.116;11.590;2023-08-17T06:48:55;95679.74;;;34.52;41.42
17373;BME280;8803;48.116;11.590;2023-08-17T06:53:13;95685.38;;;34.78;41.09
17373;BME280;8803;48.116;11.590;2023-08-17T06:57:30;95673.11;;;35.23;40.41
17373;BME280;8803;48.116;11.590;2023-08-17T07:01:48;95667.91;;;36.21;38.74
17373;BME280;8803;48.116;11.590;2023-08-17T07:06:08;95676.44;;;37.37;36.78
17373;BME280;8803;48.116;11.590;2023-08-17T07:10:24;95668.75;;;37.90;35.40
17373;BME280;8803;48.116;11.590;2023-08-17T07:14:41;95672.37;;;38.05;35.00
17373;BME280;8803;48.116;11.590;2023-08-17T07:18:58;95675.13;;;37.61;35.19
17373;BME280;8803;48.116;11.590;2023-08-17T07:23:16;95682.03;;;37.34;35.54
17373;BME280;8803;48.116;11.590;2023-08-17T07:27:33;95671.84;;;37.11;35.40
17373;BME280;8803;48.116;11.590;2023-08-17T07:31:50;95685.59;;;36.84;35.22
17373;BME280;8803;48.116;11.590;2023-08-17T07:36:12;95686.19;;;37.02;35.71
17373;BME280;8803;48.116;11.590;2023-08-17T07:40:29;95678.70;;;37.00;35.90
17373;BME280;8803;48.116;11.590;2023-08-17T07:44:46;95682.30;;;36.82;35.83
17373;BME280;8803;48.116;11.590;2023-08-17T07:49:04;95677.59;;;36.64;36.64
17373;BME280;8803;48.116;11.590;2023-08-17T07:53:21;95679.78;;;36.64;36.11
17373;BME280;8803;48.116;11.590;2023-08-17T07:57:40;95675.69;;;36.62;36.02
17373;BME280;8803;48.116;11.590;2023-08-17T08:01:58;95674.05;;;36.58;36.41
17373;BME280;8803;48.116;11.590;2023-08-17T08:06:17;95667.83;;;36.48;36.21
17373;BME280;8803;48.116;11.590;2023-08-17T08:10:38;95666.31;;;36.36;36.59
17373;BME280;8803;48.116;11.590;2023-08-17T08:14:58;95664.98;;;36.31;36.79
17373;BME280;8803;48.116;11.590;2023-08-17T08:19:15;95670.03;;;36.27;36.80
17373;BME280;8803;48.116;11.590;2023-08-17T08:23:33;95669.15;;;36.10;37.01
17373;BME280;8803;48.116;11.590;2023-08-17T08:27:50;95658.45;;;36.01;37.45
17373;BME280;8803;48.116;11.590;2023-08-17T08:32:10;95661.27;;;35.99;37.83
17373;BME280;8803;48.116;11.590;2023-08-17T08:36:27;95665.66;;;36.02;37.77
17373;BME280;8803;48.116;11.590;2023-08-17T08:40:45;95653.09;;;35.86;37.86
17373;BME280;8803;48.116;11.590;2023-08-17T08:45:05;95664.92;;;35.68;38.15
17373;BME280;8803;48.116;11.590;2023-08-17T08:49:25;95669.75;;;35.29;38.65
17373;BME280;8803;48.116;11.590;2023-08-17T08:53:45;95661.06;;;35.09;39.27
17373;BME280;8803;48.116;11.590;2023-08-17T08:55:53;95660.31;;;35.01;39.61
17373;BME280;8803;48.116;11.590;2023-08-17T09:00:14;95663.39;;;34.92;39.55
17373;BME280;8803;48.116;11.590;2023-08-17T09:04:31;95666.97;;;34.61;39.96
17373;BME280;8803;48.116;11.590;2023-08-17T09:08:50;95661.80;;;34.42;40.47
17373;BME280;8803;48.116;11.590;2023-08-17T09:13:07;95659.13;;;34.27;40.60
17373;BME280;8803;48.116;11.590;2023-08-17T09:17:26;95649.30;;;34.03;40.97
17373;BME280;8803;48.116;11.590;2023-08-17T09:21:48;95655.94;;;33.95;41.57
17373;BME280;8803;48.116;11.590;2023-08-17T09:26:09;95651.30;;;33.85;40.56
17373;BME280;8803;48.116;11.590;2023-08-17T09:30:25;95643.31;;;33.79;40.51
17373;BME280;8803;48.116;11.590;2023-08-17T09:34:45;95652.72;;;33.78;41.07
17373;BME280;8803;48.116;11.590;2023-08-17T09:39:03;95641.69;;;33.68;41.26
17373;BME280;8803;48.116;11.590;2023-08-17T09:43:20;95644.75;;;33.61;40.89
17373;BME280;8803;48.116;11.590;2023-08-17T09:47:38;95638.97;;;33.55;40.86
17373;BME280;8803;48.116;11.590;2023-08-17T09:51:55;95639.27;;;33.43;40.97
17373;BME280;8803;48.116;11.590;2023-08-17T09:56:16;95637.89;;;33.36;40.82
17373;BME280;8803;48.116;11.590;2023-08-17T10:00:35;95637.38;;;33.29;40.45
17373;BME280;8803;48.116;11.590;2023-08-17T10:04:59;95633.23;;;33.24;40.34
17373;BME280;8803;48.116;11.590;2023-08-17T10:09:21;95633.55;;;33.07;40.28
17373;BME280;8803;48.116;11.590;2023-08-17T10:13:42;95637.68;;;32.85;40.44
17373;BME280;8803;48.116;11.590;2023-08-17T10:15:50;95634.91;;;32.77;40.88
17373;BME280;8803;48.116;11.590;2023-08-17T10:17:58;95633.83;;;32.68;40.94
17373;BME280;8803;48.116;11.590;2023-08-17T10:22:23;95629.94;;;32.54;41.38
17373;BME280;8803;48.116;11.590;2023-08-17T10:26:39;95627.44;;;32.42;41.21
17373;BME280;8803;48.116;11.590;2023-08-17T10:30:58;95629.37;;;32.37;41.70
17373;BME280;8803;48.116;11.590;2023-08-17T10:35:17;95626.31;;;32.33;41.54
17373;BME280;8803;48.116;11.590;2023-08-17T10:39:36;95624.92;;;32.23;41.37
17373;BME280;8803;48.116;11.590;2023-08-17T10:43:59;95623.20;;;32.00;41.04
17373;BME280;8803;48.116;11.590;2023-08-17T10:48:30;95617.10;;;31.90;41.66
17373;BME280;8803;48.116;11.590;2023-08-17T10:52:50;95620.66;;;31.78;41.50
17373;BME280;8803;48.116;11.590;2023-08-17T10:57:29;95625.84;;;31.67;41.21
17373;BME280;8803;48.116;11.590;2023-08-17T11:01:46;95625.52;;;31.58;41.68
17373;BME280;8803;48.116;11.590;2023-08-17T11:06:22;95620.08;;;31.24;42.29
17373;BME280;8803;48.116;11.590;2023-08-17T11:10:46;95620.94;;;31.27;42.46
17373;BME280;8803;48.116;11.590;2023-08-17T11:15:03;95618.17;;;31.25;42.81
17373;BME280;8803;48.116;11.590;2023-08-17T11:17:09;95622.53;;;31.18;42.95
17373;BME280;8803;48.116;11.590;2023-08-17T11:21:27;95618.13;;;31.19;43.31
17373;BME280;8803;48.116;11.590;2023-08-17T11:25:45;95611.76;;;31.11;43.91
17373;BME280;8803;48.116;11.590;2023-08-17T11:30:00;95607.84;;;31.02;44.09
17373;BME280;8803;48.116;11.590;2023-08-17T11:34:19;95612.50;;;30.97;45.01
17373;BME280;8803;48.116;11.590;2023-08-17T11:38:38;95609.70;;;30.89;47.22
17373;BME280;8803;48.116;11.590;2023-08-17T11:42:57;95597.08;;;30.93;46.69
17373;BME280;8803;48.116;11.590;2023-08-17T11:47:14;95600.80;;;30.80;48.72
17373;BME280;8803;48.116;11.590;2023-08-17T11:51:36;95589.23;;;30.78;49.20
17373;BME280;8803;48.116;11.590;2023-08-17T11:55:53;95592.41;;;30.60;49.95
17373;BME280;8803;48.116;11.590;2023-08-17T12:00:18;95595.64;;;30.54;50.63
17373;BME280;8803;48.116;11.590;2023-08-17T12:04:37;95584.95;;;30.55;49.40
17373;BME280;8803;48.116;11.590;2023-08-17T12:08:56;95583.77;;;30.46;49.85
17373;BME280;8803;48.116;11.590;2023-08-17T12:13:14;95590.56;;;30.36;50.75
17373;BME280;8803;48.116;11.590;2023-08-17T12:17:31;95580.42;;;30.41;50.53
17373;BME280;8803;48.116;11.590;2023-08-17T12:21:50;95577.10;;;30.10;51.17
17373;BME280;8803;48.116;11.590;2023-08-17T12:26:07;95578.65;;;30.28;51.63
17373;BME280;8803;48.116;11.590;2023-08-17T12:30:30;95565.34;;;30.15;51.25
17373;BME280;8803;48.116;11.590;2023-08-17T12:34:48;95558.77;;;30.16;51.85
17373;BME280;8803;48.116;11.590;2023-08-17T12:39:09;95548.30;;;30.13;51.88
17373;BME280;8803;48.116;11.590;2023-08-17T12:43:26;95545.04;;;30.16;50.91
17373;BME280;8803;48.116;11.590;2023-08-17T12:47:43;95543.95;;;30.19;50.69
17373;BME280;8803;48.116;11.590;2023-08-17T12:52:01;95539.87;;;30.22;50.36
17373;BME280;8803;48.116;11.590;2023-08-17T12:56:19;95533.80;;;30.20;48.70
17373;BME280;8803;48.116;11.590;2023-08-17T13:00:36;95530.25;;;30.22;48.50
17373;BME280;8803;48.116;11.590;2023-08-17T13:07:05;95523.41;;;30.24;48.41
17373;BME280;8803;48.116;11.590;2023-08-17T13:11:23;95528.34;;;30.22;47.99
17373;BME280;8803;48.116;11.590;2023-08-17T13:15:41;95522.60;;;30.26;48.42
17373;BME280;8803;48.116;11.590;2023-08-17T13:19:59;95527.08;;;30.32;48.03
17373;BME280;8803;48.116;11.590;2023-08-17T13:24:20;95526.02;;;30.38;47.81
17373;BME280;8803;48.116;11.590;2023-08-17T13:28:35;95517.23;;;30.39;47.17
17373;BME280;8803;48.116;11.590;2023-08-17T13:32:56;95507.00;;;30.32;46.46
17373;BME280;8803;48.116;11.590;2023-08-17T13:37:15;95503.47;;;30.36;46.28
17373;BME280;8803;48.116;11.590;2023-08-17T13:41:32;95511.95;;;30.32;45.70
17373;BME280;8803;48.116;11.590;2023-08-17T13:45:49;95506.06;;;30.21;45.13
17373;BME280;8803;48.116;11.590;2023-08-17T13:50:09;95506.17;;;30.31;44.81
17373;BME280;8803;48.116;11.590;2023-08-17T13:54:26;95504.16;;;30.22;44.12
17373;BME280;8803;48.116;11.590;2023-08-17T13:58:46;95498.95;;;30.25;43.91
17373;BME280;8803;48.116;11.590;2023-08-17T14:03:06;95504.98;;;30.22;43.50
17373;BME280;8803;48.116;11.590;2023-08-17T14:07:21;95495.00;;;30.11;43.18
17373;BME280;8803;48.116;11.590;2023-08-17T14:11:37;95495.03;;;30.14;43.26
17373;BME280;8803;48.116;11.590;2023-08-17T14:15:54;95489.76;;;30.07;42.48
17373;BME280;8803;48.116;11.590;2023-08-17T14:20:13;95484.77;;;30.04;43.04
17373;BME280;8803;48.116;11.590;2023-08-17T14:24:29;95474.09;;;30.05;43.12
17373;BME280;8803;48.116;11.590;2023-08-17T14:28:47;95468.59;;;30.05;43.79
17373;BME280;8803;48.116;11.590;2023-08-17T14:33:05;95459.80;;;30.03;43.32
17373;BME280;8803;48.116;11.590;2023-08-17T14:37:28;95461.92;;;29.96;43.07
17373;BME280;8803;48.116;11.590;2023-08-17T14:41:44;95459.13;;;29.91;43.60
17373;BME280;8803;48.116;11.590;2023-08-17T14:46:01;95449.19;;;29.85;44.50
17373;BME280;8803;48.116;11.590;2023-08-17T14:50:20;95452.45;;;29.80;44.89
17373;BME280;8803;48.116;11.590;2023-08-17T14:54:38;95448.66;;;29.86;44.48
17373;BME280;8803;48.116;11.590;2023-08-17T14:58:55;95455.01;;;29.89;44.84
17373;BME280;8803;48.116;11.590;2023-08-17T15:03:12;95452.11;;;30.08;44.66
17373;BME280;8803;48.116;11.590;2023-08-17T15:07:29;95454.05;;;30.07;43.92
17373;BME280;8803;48.116;11.590;2023-08-17T15:11:50;95459.03;;;30.13;44.33
17373;BME280;8803;48.116;11.590;2023-08-17T15:16:07;95481.54;;;30.12;43.88
17373;BME280;8803;48.116;11.590;2023-08-17T15:20:25;95477.27;;;30.26;43.55
17373;BME280;8803;48.116;11.590;2023-08-17T15:24:47;95481.77;;;30.35;43.15
17373;BME280;8803;48.116;11.590;2023-08-17T15:29:05;95488.06;;;30.35;43.05
17373;BME280;8803;48.116;11.590;2023-08-17T15:33:22;95494.95;;;30.38;42.91
17373;BME280;8803;48.116;11.590;2023-08-17T15:37:39;95484.01;;;30.43;42.87
17373;BME280;8803;48.116;11.590;2023-08-17T15:41:55;95496.95;;;30.50;42.41
17373;BME280;8803;48.116;11.590;2023-08-17T15:46:12;95509.64;;;30.54;42.31
17373;BME280;8803;48.116;11.590;2023-08-17T15:50:31;95513.75;;;30.56;42.54
17373;BME280;8803;48.116;11.590;2023-08-17T15:54:52;95506.30;;;30.49;43.00
17373;BME280;8803;48.116;11.590;2023-08-17T15:59:10;95496.94;;;30.45;43.65
17373;BME280;8803;48.116;11.590;2023-08-17T16:03:27;95491.69;;;30.43;44.08
17373;BME280;8803;48.116;11.590;2023-08-17T16:07:44;95483.70;;;30.37;44.78
17373;BME280;8803;48.116;11.590;2023-08-17T16:12:06;95485.56;;;30.31;45.26
17373;BME280;8803;48.116;11.590;2023-08-17T16:16:26;95487.65;;;30.19;45.68
17373;BME280;8803;48.116;11.590;2023-08-17T16:20:44;95492.72;;;30.01;46.33
17373;BME280;8803;48.116;11.590;2023-08-17T16:25:01;95506.72;;;29.99;46.56
17373;BME280;8803;48.116;11.590;2023-08-17T16:29:17;95552.03;;;30.02;46.65
17373;BME280;8803;48.116;11.590;2023-08-17T16:33:33;95578.83;;;29.90;46.21
17373;BME280;8803;48.116;11.590;2023-08-17T16:38:00;95616.45;;;29.68;45.30
17373;BME280;8803;48.116;11.590;2023-08-17T16:42:25;95651.42;;;29.34;44.75
17373;BME280;8803;48.116;11.590;2023-08-17T16:46:42;95677.84;;;29.04;44.62
17373;BME280;8803;48.116;11.590;2023-08-17T16:50:59;95678.81;;;28.79;45.23
17373;BME280;8803;48.116;11.590;2023-08-17T16:55:15;95671.25;;;28.55;45.94
17373;BME280;8803;48.116;11.590;2023-08-17T16:59:32;95689.67;;;28.29;46.38
17373;BME280;8803;48.116;11.590;2023-08-17T17:03:50;95715.38;;;28.11;46.89
17373;BME280;8803;48.116;11.590;2023-08-17T17:08:07;95713.09;;;27.94;48.18
17373;BME280;8803;48.116;11.590;2023-08-17T17:12:25;95699.94;;;27.80;50.02
17373;BME280;8803;48.116;11.590;2023-08-17T17:16:43;95702.34;;;27.65;51.35
17373;BME280;8803;48.116;11.590;2023-08-17T17:21:02;95696.27;;;27.49;51.88
17373;BME280;8803;48.116;11.590;2023-08-17T17:25:20;95717.47;;;27.32;52.94
17373;BME280;8803;48.116;11.590;2023-08-17T17:29:37;95720.47;;;27.19;53.25
17373;BME280;8803;48.116;11.590;2023-08-17T17:33:56;95711.91;;;27.04;53.99
17373;BME280;8803;48.116;11.590;2023-08-17T17:38:16;95696.58;;;26.92;54.65
17373;BME280;8803;48.116;11.590;2023-08-17T17:42:33;95696.03;;;26.81;55.13
17373;BME280;8803;48.116;11.590;2023-08-17T17:46:50;95695.45;;;26.70;55.40
17373;BME280;8803;48.116;11.590;2023-08-17T17:51:10;95690.83;;;26.58;56.78
17373;BME280;8803;48.116;11.590;2023-08-17T17:55:27;95691.84;;;26.46;57.29
17373;BME280;8803;48.116;11.590;2023-08-17T17:59:44;95707.77;;;26.37;57.30
17373;BME280;8803;48.116;11.590;2023-08-17T18:04:00;95727.85;;;26.34;57.69
17373;BME280;8803;48.116;11.590;2023-08-17T18:08:17;95734.01;;;26.29;58.42
17373;BME280;8803;48.116;11.590;2023-08-17T18:12:35;95741.00;;;26.25;58.78
17373;BME280;8803;48.116;11.590;2023-08-17T18:16:52;95747.98;;;26.21;59.47
17373;BME280;8803;48.116;11.590;2023-08-17T18:21:10;95772.44;;;26.16;59.77
17373;BME280;8803;48.116;11.590;2023-08-17T18:25:27;95794.56;;;26.08;60.59
17373;BME280;8803;48.116;11.590;2023-08-17T18:27:36;95797.81;;;25.90;60.58
17373;BME280;8803;48.116;11.590;2023-08-17T18:31:53;95820.95;;;25.78;62.03
17373;BME280;8803;48.116;11.590;2023-08-17T18:36:10;95870.87;;;25.69;62.59
17373;BME280;8803;48.116;11.590;2023-08-17T18:40:26;95886.43;;;25.44;64.36
17373;BME280;8803;48.116;11.590;2023-08-17T18:44:44;95870.09;;;25.38;64.69
17373;BME280;8803;48.116;11.590;2023-08-17T18:49:02;95863.25;;;25.29;65.75
17373;BME280;8803;48.116;11.590;2023-08-17T18:53:19;95870.72;;;25.24;66.56
17373;BME280;8803;48.116;11.590;2023-08-17T18:55:23;95874.86;;;25.18;67.35
17373;BME280;8803;48.116;11.590;2023-08-17T18:59:43;95868.52;;;25.15;68.34
17373;BME280;8803;48.116;11.590;2023-08-17T19:04:00;95874.72;;;25.13;68.29
17373;BME280;8803;48.116;11.590;2023-08-17T19:08:18;95878.42;;;25.09;69.00
17373;BME280;8803;48.116;11.590;2023-08-17T19:12:35;95875.19;;;25.03;69.68
17373;BME280;8803;48.116;11.590;2023-08-17T19:16:53;95866.02;;;24.97;70.00
17373;BME280;8803;48.116;11.590;2023-08-17T19:21:12;95863.73;;;24.94;70.92
17373;BME280;8803;48.116;11.590;2023-08-17T19:25:29;95850.24;;;24.90;71.32
17373;BME280;8803;48.116;11.590;2023-08-17T19:27:33;95843.28;;;24.85;70.83
17373;BME280;8803;48.116;11.590;2023-08-17T19:31:51;95841.40;;;24.86;71.15
17373;BME280;8803;48.116;11.590;2023-08-17T19:36:08;95832.66;;;24.77;72.03
17373;BME280;8803;48.116;11.590;2023-08-17T19:40:26;95836.34;;;24.67;73.01
17373;BME280;8803;48.116;11.590;2023-08-17T19:44:43;95829.38;;;24.62;72.78
17373;BME280;8803;48.116;11.590;2023-08-17T19:48:59;95828.44;;;24.59;73.02
17373;BME280;8803;48.116;11.590;2023-08-17T19:53:16;95828.44;;;24.59;72.86
17373;BME280;8803;48.116;11.590;2023-08-17T19:57:33;95827.73;;;24.55;73.22
17373;BME280;8803;48.116;11.590;2023-08-17T20:01:49;95825.75;;;24.53;73.50
17373;BME280;8803;48.116;11.590;2023-08-17T20:06:05;95826.30;;;24.52;73.65
17373;BME280;8803;48.116;11.590;2023-08-17T20:10:25;95832.40;;;24.48;73.60
17373;BME280;8803;48.116;11.590;2023-08-17T20:14:41;95824.43;;;24.46;73.99
17373;BME280;8803;48.116;11.590;2023-08-17T20:18:58;95823.52;;;24.43;74.41
17373;BME280;8803;48.116;11.590;2023-08-17T20:23:16;95809.30;;;24.41;74.34
17373;BME280;8803;48.116;11.590;2023-08-17T20:27:34;95811.50;;;24.42;74.98
17373;BME280;8803;48.116;11.590;2023-08-17T20:31:52;95806.25;;;24.40;74.89
17373;BME280;8803;48.116;11.590;2023-08-17T20:36:10;95813.80;;;24.38;74.39
17373;BME280;8803;48.116;11.590;2023-08-17T20:40:27;95811.73;;;24.33;74.58
17373;BME280;8803;48.116;11.590;2023-08-17T20:44:43;95813.41;;;24.35;74.17
17373;BME280;8803;48.116;11.590;2023-08-17T20:49:01;95818.86;;;24.35;74.56
17373;BME280;8803;48.116;11.590;2023-08-17T20:53:20;95813.70;;;24.36;73.31
17373;BME280;8803;48.116;11.590;2023-08-17T20:57:37;95808.81;;;24.35;73.38
17373;BME280;8803;48.116;11.590;2023-08-17T21:01:55;95823.98;;;24.33;72.84
17373;BME280;8803;48.116;11.590;2023-08-17T21:06:12;95842.28;;;24.36;72.20
17373;BME280;8803;48.116;11.590;2023-08-17T21:10:29;95852.14;;;24.37;71.20
17373;BME280;8803;48.116;11.590;2023-08-17T21:14:47;95874.01;;;24.39;70.54
17373;BME280;8803;48.116;11.590;2023-08-17T21:19:03;95880.95;;;24.35;69.88
17373;BME280;8803;48.116;11.590;2023-08-17T21:23:19;95870.14;;;24.15;69.84
17373;BME280;8803;48.116;11.590;2023-08-17T21:27:35;95860.88;;;24.23;70.26
17373;BME280;8803;48.116;11.590;2023-08-17T21:31:52;95851.06;;;24.22;70.68
17373;BME280;8803;48.116;11.590;2023-08-17T21:36:09;95838.49;;;24.21;71.30
17373;BME280;8803;48.116;11.590;2023-08-17T21:40:26;95835.09;;;24.16;72.41
17373;BME280;8803;48.116;11.590;2023-08-17T21:44:43;95832.56;;;24.15;72.26
17373;BME280;8803;48.116;11.590;2023-08-17T21:48:59;95833.33;;;24.06;73.55
17373;BME280;8803;48.116;11.590;2023-08-17T21:53:17;95832.07;;;24.09;73.42
17373;BME280;8803;48.116;11.590;2023-08-17T21:57:34;95833.20;;;24.10;73.83
17373;BME280;8803;48.116;11.590;2023-08-17T22:01:52;95840.00;;;24.10;73.79
17373;BME280;8803;48.116;11.590;2023-08-17T22:06:09;95831.42;;;24.13;74.17
17373;BME280;8803;48.116;11.590;2023-08-17T22:10:26;95825.66;;;24.12;73.72
17373;BME280;8803;48.116;11.590;2023-08-17T22:14:45;95821.48;;;24.16;72.90
17373;BME280;8803;48.116;11.590;2023-08-17T22:19:04;95809.23;;;24.16;73.02
17373;BME280;8803;48.116;11.590;2023-08-17T22:23:21;95818.37;;;24.06;73.93
17373;BME280;8803;48.116;11.590;2023-08-17T22:27:39;95815.36;;;24.05;74.22
17373;BME280;8803;48.116;11.590;2023-08-17T22:31:55;95815.57;;;23.97;74.49